Terminal Aerodrome Forecast
Issued by NWS

Home | Current Version | Previous Version | Text Only | Print | Product List | Glossary On
Versions: 1 2 3 4 5 6 7 8 9 10 11 12 13
010
FTUS43 KILX 251735
TAFBMI
TAF
KBMI 251735Z 2518/2618 18014G19KT P6SM SCT035 BKN250
     FM252100 19014G21KT P6SM VCTS SCT050CB BKN150
     FM260100 18009KT P6SM BKN040 BKN120
     FM261200 19011KT P6SM VCTS BKN045CB=

USA.gov is the U.S. government's official web portal to all federal, state and local government web resources and services.